• Join FlightAware (Why Join?)
  • Login
  • US Flag 
07:13AM EDT


 

Airport Tracker/Info


-or-


 

Live Flight TrackerFlight Track Log ✈ N343CW ✈ 03-Nov-2013 ✈ KMRT - KFWA

Flight Track Log - Related Links

Times and Time Zones

All times are in EST time to prevent confusion due to time zone crossing. See the N343CW flight status page for this flight to view local times or setup timezone preferences in your user account.

Time Position Orientation Groundspeed Altitude Reporting Facility
EST Latitude Longitude Course Direction KTS MPH feet Rate Location/Type
10:21AM 40.2147 -83.4072 138° Southeast 167 192 6,500  Level Indianapolis Center
10:21AM 40.2131 -83.4053 138° Southeast 171 197 6,400 1,380 Descending Indianapolis Center
10:22AM 40.2347 -83.4594 298° West 169 194 8,000 1,680 Climbing Indianapolis Center
10:23AM 40.2597 -83.5258 296° West 170 196 9,900 960 Climbing Indianapolis Center
10:24AM 40.2822 -83.5842 297° West 176 203 10,100 60 Climbing Indianapolis Center
10:25AM 40.3122 -83.6519 300° West 207 238 10,100 -60 Level Indianapolis Center
10:26AM 40.3447 -83.7231 301° West 222 255 10,000 -60 Descending Indianapolis Center
10:27AM 40.3761 -83.7947 300° West 226 260 10,000  Level Indianapolis Center
10:29AM 40.4078 -83.8667 300° West 229 264 10,000  Level Indianapolis Center
10:30AM 40.4475 -83.9506 302° West 226 260 10,100  Climbing Indianapolis Center
10:31AM 40.4722 -84.0275 293° West 229 264 10,000 -60 Descending Indianapolis Center
10:32AM 40.4967 -84.1039 293° West 227 261 10,000  Level Indianapolis Center
10:33AM 40.5247 -84.1781 296° West 228 262 10,100  Climbing Indianapolis Center
10:34AM 40.5489 -84.2558 292° West 229 264 10,000  Descending Indianapolis Center
10:35AM 40.5767 -84.3308 296° West 230 265 10,100  Climbing Indianapolis Center
10:36AM 40.6075 -84.4228 294° West 231 266 10,000  Descending Indianapolis Center
10:37AM 40.6350 -84.4994 295° West 233 268 10,100  Climbing Indianapolis Center
10:38AM 40.6603 -84.5786 293° West 235 270 10,100  Level Indianapolis Center
10:39AM 40.6864 -84.6483 296° West 236 272 10,100 -360 Level Chicago Center
10:40AM 40.7131 -84.7281 294° West 237 273 9,400 -1,020 Descending Chicago Center
10:41AM 40.7442 -84.8203 294° West 231 266 8,100 -1,140 Descending Chicago Center
10:42AM 40.7711 -84.8978 295° West 231 266 7,100 -1,020 Descending Chicago Center
10:43AM 40.7975 -84.9778 294° West 236 272 6,100 -1,020 Descending Chicago Center
10:44AM 40.8219 -85.0522 293° West 230 265 5,100 -1,020 Descending Chicago Center
10:45AM 40.8478 -85.1253 295° West 224 258 4,100 -1,020 Descending Chicago Center
10:46AM 40.8728 -85.1983 294° West 221 254 3,100 -840 Descending Chicago Center
10:47AM 40.8983 -85.2631 298° West 214 246 2,400 -300 Descending Chicago Center
10:48AM 40.9336 -85.3214 309° West 191 220 2,600 120 Climbing Chicago Center
10:49AM 40.9250 -85.3803 259° West 194 223 2,700  Climbing Chicago Center
10:50AM 40.8875 -85.4233 221° Southwest 187 215 2,600  Descending Chicago Center
10:51AM 40.8561 -85.3789 133° Southeast 176 203 2,700  Climbing Chicago Center
10:52AM 40.8708 -85.3278 69° East 164 189 2,700 -60 Level Chicago Center
10:53AM 40.9011 -85.2886 44° Northeast 158 182 2,600 -300 Descending Chicago Center
10:54AM 40.9297 -85.2528 43° Northeast 148 170 2,100 -540 Descending Chicago Center